Terminal Aerodrome Forecast
Issued by NWS

Home | Current Version | Previous Version | Text Only | Print | Product List | Glossary On
Versions: 1 2 3 4 5 6 7 8 9 10 11 12 13 14 15 16 17 18 19 20 21 22 23
000
FTUS46 KSEW 211200 AAA
TAFSEA
TAF AMD
KSEA 211248Z 2113/2218 VRB03KT P6SM SCT010
      TEMPO 2113/2115 BKN010
     FM211500 VRB03KT P6SM BKN010
     FM211800 22008KT P6SM SCT040
     FM220600 22008KT P6SM BKN050=

USA.gov is the U.S. government's official web portal to all federal, state and local government web resources and services.